AirNav   Bose Proflight aviation headeet
 
 1024 users online  

4AL9 T W Spear Memorial Airport
Lapine, Alabama, USA

GOING TO LAPINE?


FAA INFORMATION EFFECTIVE 03 JANUARY 2019

Location

FAA Identifier: 4AL9
Lat/Long: 31-58-29.0000N / 086-17-38.0000W
31-58.483333N / 086-17.633333W
31.9747222 / -86.2938889
(estimated)
Elevation: 438 ft. / 134 m (estimated)
Variation: 01W (1995)
From city: 1 mile N of LAPINE, AL
Time zone: UTC -6 (UTC -5 during Daylight Saving Time)
Zip code: 36046

Airport Operations

Airport use: Private use. Permission required prior to landing
Activation date: 09/1996
Control tower: no
ARTCC: ATLANTA CENTER
FSS: ANNISTON FLIGHT SERVICE STATION
Attendance: CONTINUOUS
Wind indicator: yes
Segmented circle: no
Landing fee: yes

Airport Communications

WX ASOS at TOI (16 nm SE): PHONE 334-566-3081
WX ASOS at PRN (18 nm SW): 120.0 (334-383-9676)

Nearby radio navigation aids

VOR radial/distance  VOR name  Freq  Var
MGMr172/14.9MONTGOMERY VORTAC112.1003E

 
NDB name  Hdg/Dist  Freq  Var  ID
BLOOD316/12.936504WTOI - --- ..

Airport Services

Fuel available: 100LL

Runway Information

Runway 4/22

Dimensions: 2909 x 30 ft. / 887 x 9 m
Surface: asphalt, in poor condition
UNEVEN SFC WITH NUMEROUS DEPRESSIONS & STANDING WATER AFTER RAIN.
RUNWAY 4  RUNWAY 22
Traffic pattern: leftleft
Displaced threshold: no150 ft.
Obstructions: 80 ft. trees, 1200 ft. from runway, 5:1 slope to clear76 ft. trees, 352 ft. from runway, 2:1 slope to clear

Airport Ownership and Management from official FAA records

Ownership: Privately-owned
Owner: ART PERSKY
228 MERRITT HAY ROAD
LAPINE, AL 36046
Phone 334-300-5986
Manager: ART PERSKY
228 MERRITT HAY ROAD
LAPINE, AL 36046
Phone 334-300-5986

Airport Operational Statistics

Aircraft based on the field: 6
Single engine airplanes: 3
Multi engine airplanes: 2
Ultralights: 1
    

Instrument Procedures

There are no published instrument procedures at 4AL9.

Some nearby airports with instrument procedures:

KTOI - Troy Municipal Airport at N Kenneth Campbell Field (16 nm SE)
KPRN - Mac Crenshaw Memorial Airport (18 nm SW)
KMGM - Montgomery Regional Airport (Dannelly Field) (20 nm N)
KMXF - Maxwell Air Force Base (25 nm N)
1A9 - Prattville Airport - Grouby Field (30 nm N)
 
Loc | Ops | Rwys | IFR | FBO | Links
Com | Nav | Svcs | Stats | Notes
Area around 4AL9 (T W Spear Memorial Airport)
 
Road maps at: MapQuest Bing Google
 
Aerial photo
No photo
 
Sectional chart

 
Airport distance calculator
Flying to T W Spear Memorial Airport? Find the distance to fly.

From to 4AL9

Sunrise and sunset
Times for 21-Jan-2019
 Local
(UTC-6)
 Zulu
(UTC)
Morning civil twilight06:1912:19
Sunrise06:4512:45
Sunset17:0823:08
Evening civil twilight17:3423:34

Current date and time
Zulu (UTC)  22-Jan-2019 01:00:15
Local (UTC-6)  21-Jan-2019 19:00:15
 
METAR
KTOI 
16nm SE 
220053Z AUTO 00000KT 10SM CLR 03/M02 A3037 RMK AO2 SLP285 T00281017
KPRN 
18nm SW 
212356Z AUTO 02003KT 10SM CLR 06/M03 A3035 RMK AO2 SLP279 T00611033 10111 20061 53001
KMGM 
20nm N 
220053Z 00000KT 10SM CLR 04/M04 A3037 RMK AO2 SLP285 T00441039
KMXF 
24nm N 
212356Z AUTO 07004KT 10SM CLR 07/M04 A3036 RMK AO2 SLP285 T00671044 10089 20050 57004 $
K1A9 
30nm N 
220055Z AUTO 00000KT 10SM CLR 02/M03 A3036 RMK AO2 T00151026
TAF
KTOI 
16nm SE 
211734Z 2118/2218 04005KT P6SM SCT250 FM220000 10002KT P6SM SKC FM220600 11006KT P6SM SKC
NOTAMs
Click for the latest NOTAMs
NOTAMs are issued by the DoD/FAA and will open in a separate window not controlled by AirNav.

 

 
 

Would you like to see your business listed on this page?

 If your business provides an interesting product or service to pilots, flight crews, aircraft, or users of the T W Spear Memorial Airport, you should consider listing it here.  To start the listing process, click on the button below
 
Add a business
 

Other Pages about T W Spear Memorial Airport

Update a link
 
Copyright © AirNav, LLC. All rights reserved. Privacy Policy  Contact